Time;durP1;ratioP1;P1;durP2;ratioP2;P2;SDS_P1;SDS_P2;PMS_P1;PMS_P2;Temp;Humidity;BMP_temperature;BMP_pressure;BME280_temperature;BME280_humidity;BME280_pressure;Samples;Min_cycle;Max_cycle;Signal;HPM_P1;HPM_P2
2020/12/20 00:00:09;;;;;;;6.13;4.77;;;;;;;7.06;71.56;101046.88;5052595;28;20208;-67
2020/12/20 00:02:35;;;;;;;5.97;5.33;;;;;;;7.06;71.02;101042.44;5050009;28;20205;-67
2020/12/20 00:05:03;;;;;;;4.73;4.13;;;;;;;7.08;71.05;101042.38;5040966;28;20555;-67
2020/12/20 00:07:29;;;;;;;6.57;5.03;;;;;;;7.11;71.25;101035.19;5050107;28;20690;-67
2020/12/20 00:09:55;;;;;;;5.23;4.57;;;;;;;7.14;71.54;101045.66;5047189;28;20202;-67
2020/12/20 00:12:22;;;;;;;5.53;4.93;;;;;;;7.18;70.76;101038.41;5045824;28;20209;-67
2020/12/20 00:14:48;;;;;;;5.63;4.43;;;;;;;7.20;71.42;101033.91;5050941;28;20202;-67
2020/12/20 00:17:14;;;;;;;5.63;4.70;;;;;;;7.20;71.19;101018.88;5049810;28;20571;-67
2020/12/20 00:19:40;;;;;;;5.43;4.93;;;;;;;7.23;70.73;101039.06;5050454;28;20485;-67
2020/12/20 00:22:10;;;;;;;4.93;4.43;;;;;;;7.23;71.33;101047.03;5048708;28;20607;-68
2020/12/20 00:24:37;;;;;;;6.20;5.07;;;;;;;7.27;70.63;101048.63;5046518;28;20224;-67
2020/12/20 00:27:04;;;;;;;5.10;4.60;;;;;;;7.28;71.08;101037.09;5045083;28;20229;-68
2020/12/20 00:29:32;;;;;;;5.23;4.60;;;;;;;7.29;70.56;101034.38;5048929;28;20209;-68
2020/12/20 00:31:59;;;;;;;5.87;4.60;;;;;;;7.31;70.88;101040.47;5046193;28;20226;-67
2020/12/20 00:34:25;;;;;;;6.20;5.57;;;;;;;7.34;70.32;101046.56;5049763;28;20590;-67
2020/12/20 00:36:51;;;;;;;6.13;4.77;;;;;;;7.35;69.93;101051.78;5030439;28;20226;-67
2020/12/20 00:39:20;;;;;;;6.67;4.90;;;;;;;7.35;70.44;101054.41;5046806;28;20208;-67
2020/12/20 00:41:49;;;;;;;5.77;4.70;;;;;;;7.36;70.13;101053.50;5049822;28;21485;-67
2020/12/20 00:44:15;;;;;;;5.73;5.10;;;;;;;7.38;70.02;101042.84;5040204;28;20205;-67
2020/12/20 00:46:42;;;;;;;6.43;5.00;;;;;;;7.38;70.40;101053.44;5046448;28;20220;-67
2020/12/20 00:49:08;;;;;;;5.20;4.60;;;;;;;7.39;69.92;101047.22;5047387;28;20333;-67
2020/12/20 00:51:34;;;;;;;5.60;4.60;;;;;;;7.40;70.53;101056.88;5047864;28;20226;-68
2020/12/20 00:54:00;;;;;;;5.60;5.00;;;;;;;7.41;69.96;101048.88;5047125;28;20206;-67
2020/12/20 00:56:27;;;;;;;4.87;4.40;;;;;;;7.42;70.43;101055.88;5048341;28;20251;-67
2020/12/20 00:58:53;;;;;;;5.77;4.80;;;;;;;7.43;70.53;101056.75;5045653;28;20666;-67
2020/12/20 01:01:20;;;;;;;5.03;4.43;;;;;;;7.41;70.47;101061.25;5043147;28;20214;-67
2020/12/20 01:03:46;;;;;;;6.30;5.50;;;;;;;7.40;69.55;101060.41;5040706;28;20208;-68
2020/12/20 01:06:15;;;;;;;6.23;5.13;;;;;;;7.40;70.10;101065.69;5046515;28;20632;-67
2020/12/20 01:08:42;;;;;;;6.00;4.63;;;;;;;7.40;70.26;101068.34;5042827;28;20252;-67
2020/12/20 01:11:08;;;;;;;5.57;4.60;;;;;;;7.38;69.52;101070.19;5034886;28;20686;-67
2020/12/20 01:13:35;;;;;;;6.13;5.53;;;;;;;7.39;69.98;101071.06;5036035;28;20926;-67
2020/12/20 01:16:01;;;;;;;5.03;4.53;;;;;;;7.37;69.71;101073.78;5034586;28;20718;-67
2020/12/20 01:18:27;;;;;;;6.10;4.73;;;;;;;7.36;69.98;101082.66;5037533;28;20716;-67
2020/12/20 01:20:53;;;;;;;5.73;5.03;;;;;;;7.36;69.52;101087.09;5039634;28;20805;-67
2020/12/20 01:23:19;;;;;;;5.93;4.73;;;;;;;7.35;69.70;101080.06;5046049;28;20701;-67
2020/12/20 01:25:45;;;;;;;5.93;5.03;;;;;;;7.36;70.04;101089.72;5044962;28;20602;-67
2020/12/20 01:28:11;;;;;;;5.67;4.90;;;;;;;7.35;69.75;101085.34;5038277;28;20222;-68
2020/12/20 01:30:38;;;;;;;6.10;5.40;;;;;;;7.34;69.95;101094.25;5031565;28;20636;-67
2020/12/20 01:33:04;;;;;;;5.17;4.67;;;;;;;7.31;69.89;101088.16;5032017;28;20228;-68
2020/12/20 01:35:30;;;;;;;6.10;5.40;;;;;;;7.30;70.13;101085.56;5030151;28;20675;-67
2020/12/20 01:37:56;;;;;;;5.90;5.23;;;;;;;7.27;69.74;101093.66;5032401;28;20203;-67
2020/12/20 01:40:22;;;;;;;6.67;5.37;;;;;;;7.26;70.51;101082.19;5037227;28;20582;-67
2020/12/20 01:42:54;;;;;;;5.77;4.40;;;;;;;7.23;70.47;101087.63;5038629;28;20202;-67
2020/12/20 01:45:20;;;;;;;6.23;4.90;;;;;;;7.22;69.73;101087.69;5037210;28;20580;-67
2020/12/20 01:47:47;;;;;;;5.70;5.10;;;;;;;7.20;70.51;101085.09;5038435;28;20229;-67
2020/12/20 01:50:14;;;;;;;6.03;5.33;;;;;;;7.20;70.53;101089.53;5041431;28;20694;-68
2020/12/20 01:52:40;;;;;;;6.00;5.40;;;;;;;7.19;69.86;101090.44;5058373;28;20209;-67
2020/12/20 01:55:08;;;;;;;6.27;5.67;;;;;;;7.16;70.39;101091.47;5042040;28;20209;-67
2020/12/20 01:57:34;;;;;;;7.00;5.20;;;;;;;7.15;70.41;101083.59;5045873;28;20615;-67
2020/12/20 02:00:00;;;;;;;7.30;5.70;;;;;;;7.11;70.72;101082.00;5037667;28;20272;-67
2020/12/20 02:02:26;;;;;;;7.37;5.30;;;;;;;7.10;70.57;101074.97;5037426;28;20697;-68
2020/12/20 02:04:53;;;;;;;6.97;5.83;;;;;;;7.09;70.16;101078.53;5050544;28;20211;-67
2020/12/20 02:07:19;;;;;;;6.23;5.63;;;;;;;7.08;70.09;101066.22;5056989;28;20225;-67
2020/12/20 02:09:47;;;;;;;5.90;5.30;;;;;;;7.07;70.31;101068.00;5047612;28;20212;-67
2020/12/20 02:12:13;;;;;;;6.60;5.53;;;;;;;7.07;70.26;101057.41;5047050;28;20547;-67
2020/12/20 02:14:39;;;;;;;6.87;5.67;;;;;;;7.08;70.82;101067.09;5045123;28;20205;-67
2020/12/20 02:17:06;;;;;;;7.03;5.50;;;;;;;7.07;70.21;101070.66;5056212;28;20218;-67
2020/12/20 02:19:32;;;;;;;6.60;5.90;;;;;;;7.08;70.13;101076.81;5051544;28;20210;-67
2020/12/20 02:21:59;;;;;;;6.87;5.73;;;;;;;7.07;70.91;101077.75;5048101;28;20228;-67
2020/12/20 02:24:25;;;;;;;7.03;6.33;;;;;;;7.06;71.19;101073.38;5057975;28;20266;-67
2020/12/20 02:26:51;;;;;;;6.93;5.87;;;;;;;7.06;70.33;101082.16;5042062;28;20608;-67
2020/12/20 02:29:17;;;;;;;7.07;6.37;;;;;;;7.07;70.52;101090.97;5038329;28;20213;-67
2020/12/20 02:31:43;;;;;;;7.27;6.43;;;;;;;7.07;71.15;101083.03;5050168;28;20205;-67
2020/12/20 02:34:10;;;;;;;7.20;6.10;;;;;;;7.06;70.68;101078.66;5052595;28;20202;-67
2020/12/20 02:36:37;;;;;;;7.43;6.53;;;;;;;7.04;71.05;101070.78;5048135;28;20221;-67
2020/12/20 02:39:04;;;;;;;7.57;6.23;;;;;;;7.04;70.71;101064.63;5043462;28;20560;-67
2020/12/20 02:41:31;;;;;;;6.80;6.10;;;;;;;7.02;71.21;101062.03;5055643;28;20205;-67
2020/12/20 02:43:58;;;;;;;8.57;6.47;;;;;;;7.02;70.71;101059.38;5043779;28;20206;-67
2020/12/20 02:46:24;;;;;;;6.90;6.20;;;;;;;7.01;71.17;101054.16;5037242;28;20276;-67
2020/12/20 02:48:51;;;;;;;7.67;6.50;;;;;;;6.99;71.08;101064.81;5051706;28;20205;-67
2020/12/20 02:51:17;;;;;;;7.70;6.70;;;;;;;6.99;71.72;101054.22;5053689;28;20743;-67
2020/12/20 02:53:44;;;;;;;7.80;6.40;;;;;;;6.99;71.33;101056.03;5054082;28;20579;-67
2020/12/20 02:56:11;;;;;;;8.10;6.73;;;;;;;6.98;71.38;101071.06;5068526;22;20236;-65
2020/12/20 02:58:37;;;;;;;7.33;6.57;;;;;;;6.96;72.23;101073.75;5044913;28;20603;-66
2020/12/20 03:01:03;;;;;;;7.57;6.60;;;;;;;6.96;72.03;101075.56;5050841;28;20220;-66
2020/12/20 03:03:29;;;;;;;8.00;6.43;;;;;;;6.94;71.74;101074.75;5040214;28;20213;-66
2020/12/20 03:05:55;;;;;;;6.97;6.33;;;;;;;6.93;72.56;101065.09;5032889;28;20233;-66
2020/12/20 03:08:21;;;;;;;7.47;6.47;;;;;;;6.92;71.75;101061.56;5032938;28;20233;-66
2020/12/20 03:10:47;;;;;;;8.50;6.50;;;;;;;6.90;72.66;101060.78;5032739;28;20244;-66
2020/12/20 03:13:14;;;;;;;7.13;6.03;;;;;;;6.90;72.63;101071.38;5034637;28;20210;-66
2020/12/20 03:15:43;;;;;;;8.13;6.77;;;;;;;6.89;71.77;101063.47;5033776;28;20209;-66
2020/12/20 03:18:09;;;;;;;9.03;7.20;;;;;;;6.88;72.61;101059.97;5046928;28;20233;-66
2020/12/20 03:20:35;;;;;;;7.60;6.83;;;;;;;6.88;72.13;101067.91;5038480;28;20202;-65
2020/12/20 03:23:01;;;;;;;8.20;6.80;;;;;;;6.87;72.50;101066.19;5038320;28;20267;-65
2020/12/20 03:25:27;;;;;;;9.03;7.10;;;;;;;6.87;72.18;101057.38;5053234;28;20205;-65
2020/12/20 03:27:53;;;;;;;7.30;6.60;;;;;;;6.86;72.75;101051.22;5041645;28;20705;-66
2020/12/20 03:30:21;;;;;;;7.73;6.93;;;;;;;6.86;72.93;101056.53;5036891;28;20209;-65
2020/12/20 03:32:47;;;;;;;10.23;7.70;;;;;;;6.84;72.72;101050.44;5046214;28;20216;-65
2020/12/20 03:35:13;;;;;;;9.40;7.40;;;;;;;6.84;72.86;101058.38;5036938;28;20198;-65
2020/12/20 03:37:49;;;;;;;9.87;7.80;;;;;;;6.83;72.68;101061.06;5053471;28;20221;-65
2020/12/20 03:40:15;;;;;;;9.93;8.07;;;;;;;6.82;73.44;101062.88;5034265;28;20201;-65
2020/12/20 03:42:41;;;;;;;10.73;7.80;;;;;;;6.81;73.11;101063.78;5032753;28;20586;-65
2020/12/20 03:45:07;;;;;;;10.63;7.83;;;;;;;6.81;73.32;101063.78;5032421;28;20214;-65
2020/12/20 03:47:34;;;;;;;8.27;7.40;;;;;;;6.80;73.57;101061.22;5033837;28;20234;-65
2020/12/20 03:50:00;;;;;;;8.53;7.37;;;;;;;6.80;73.28;101072.69;5034458;28;20206;-66
2020/12/20 03:52:26;;;;;;;10.17;8.10;;;;;;;6.79;73.26;101072.75;5038915;28;20692;-65
2020/12/20 03:54:52;;;;;;;9.17;7.70;;;;;;;6.78;73.31;101076.31;5053141;28;20210;-65
2020/12/20 03:57:18;;;;;;;9.83;8.07;;;;;;;6.76;73.28;101073.72;5036527;28;20234;-65
2020/12/20 03:59:45;;;;;;;9.50;7.80;;;;;;;6.74;73.55;101064.97;5035067;28;20216;-65
2020/12/20 04:02:11;;;;;;;8.30;7.23;;;;;;;6.73;73.69;101070.34;5045470;28;20205;-65
2020/12/20 04:04:38;;;;;;;8.47;7.53;;;;;;;6.71;73.91;101067.75;5044419;28;20279;-65
2020/12/20 04:07:04;;;;;;;8.23;7.43;;;;;;;6.70;73.21;101060.72;5034231;28;20316;-66
2020/12/20 04:09:30;;;;;;;9.80;8.20;;;;;;;6.70;73.38;101067.81;5032606;28;20220;-65
2020/12/20 04:11:56;;;;;;;9.07;8.07;;;;;;;6.68;73.56;101057.28;5035458;28;20628;-65
2020/12/20 04:14:22;;;;;;;9.47;7.90;;;;;;;6.67;73.89;101052.91;5031683;28;20607;-65
2020/12/20 04:16:48;;;;;;;8.63;7.50;;;;;;;6.66;73.72;101053.81;5033091;28;20602;-65
2020/12/20 04:19:14;;;;;;;8.33;7.33;;;;;;;6.65;73.48;101054.75;5045044;28;20205;-65
2020/12/20 04:21:41;;;;;;;8.70;7.73;;;;;;;6.64;73.72;101058.31;5040558;28;20221;-65
2020/12/20 04:24:07;;;;;;;10.57;8.07;;;;;;;6.63;73.94;101064.53;5038076;28;20206;-67
2020/12/20 04:26:33;;;;;;;10.20;8.20;;;;;;;6.63;73.56;101063.69;5051019;28;20230;-65
2020/12/20 04:29:00;;;;;;;9.77;8.77;;;;;;;6.61;73.98;101066.41;5045125;28;20215;-65
2020/12/20 04:31:26;;;;;;;10.03;8.27;;;;;;;6.60;73.78;101056.75;5031996;28;20305;-65
2020/12/20 04:33:52;;;;;;;9.40;8.40;;;;;;;6.59;73.66;101057.66;5046138;28;20206;-65
2020/12/20 04:36:18;;;;;;;11.50;9.03;;;;;;;6.58;73.82;101056.81;5034090;28;20226;-65
2020/12/20 04:38:45;;;;;;;10.07;7.80;;;;;;;6.58;73.65;101058.59;5052031;28;20197;-66
2020/12/20 04:41:12;;;;;;;8.90;7.97;;;;;;;6.57;74.35;101054.22;5037218;28;20217;-65
2020/12/20 04:43:38;;;;;;;10.43;8.27;;;;;;;6.55;74.06;101059.56;5031585;28;20700;-65
2020/12/20 04:46:05;;;;;;;9.27;7.80;;;;;;;6.55;73.79;101072.81;5037196;28;20573;-65
2020/12/20 04:48:36;;;;;;;11.37;9.13;;;;;;;6.54;74.19;101065.78;5032392;28;20269;-66
2020/12/20 04:51:03;;;;;;;10.20;8.83;;;;;;;6.54;73.91;101062.28;5038964;28;20248;-66
2020/12/20 04:53:30;;;;;;;10.40;8.77;;;;;;;6.53;74.04;101066.69;5030680;28;20210;-65
2020/12/20 04:56:02;;;;;;;9.63;8.20;;;;;;;6.53;74.24;101068.47;5033531;28;20264;-65
2020/12/20 04:58:29;;;;;;;10.33;8.70;;;;;;;6.53;74.32;101074.63;5043539;28;20209;-66
2020/12/20 05:00:55;;;;;;;10.17;7.93;;;;;;;6.53;74.47;101066.69;5044329;28;20214;-65
2020/12/20 05:03:21;;;;;;;11.43;9.20;;;;;;;6.53;74.62;101063.19;5036093;28;20468;-65
2020/12/20 05:05:47;;;;;;;9.80;8.80;;;;;;;6.52;74.53;101059.69;5037176;28;20616;-64
2020/12/20 05:08:14;;;;;;;10.50;8.53;;;;;;;6.52;74.48;101056.19;5039934;28;20234;-66
2020/12/20 05:10:41;;;;;;;11.27;8.73;;;;;;;6.53;74.48;101055.25;5042258;28;20205;-63
2020/12/20 05:13:08;;;;;;;10.30;8.60;;;;;;;6.52;74.42;101046.44;5035787;28;20207;-65
2020/12/20 05:15:34;;;;;;;10.67;8.77;;;;;;;6.53;74.78;101047.31;5040723;28;20203;-66
2020/12/20 05:18:04;;;;;;;10.43;8.60;;;;;;;6.52;74.88;101051.75;5036469;28;20272;-67
2020/12/20 05:20:38;;;;;;;9.77;8.70;;;;;;;6.52;74.56;101054.41;5043724;28;20658;-65
2020/12/20 05:23:05;;;;;;;10.27;8.47;;;;;;;6.51;74.57;101046.50;5050315;28;20206;-65
2020/12/20 05:25:32;;;;;;;12.53;9.43;;;;;;;6.50;74.62;101052.72;5031708;28;20210;-67
2020/12/20 05:28:14;;;;;;;10.07;8.10;;;;;;;6.50;75.22;101063.31;5031770;28;20241;-65
2020/12/20 05:30:42;;;;;;;12.80;8.67;;;;;;;6.50;75.06;101064.16;5038342;28;20208;-66
2020/12/20 05:33:09;;;;;;;9.83;8.13;;;;;;;6.51;75.17;101075.63;5045756;28;20214;-66
2020/12/20 05:35:36;;;;;;;10.37;8.83;;;;;;;6.51;75.06;101073.84;5032015;28;20588;-66
2020/12/20 05:38:04;;;;;;;8.90;7.97;;;;;;;6.51;74.91;101083.56;5031714;28;20222;-65
2020/12/20 05:40:32;;;;;;;10.93;8.10;;;;;;;6.52;75.40;101078.22;5032228;28;20681;-66
2020/12/20 05:43:00;;;;;;;9.17;8.20;;;;;;;6.51;75.14;101068.53;5032717;28;20374;-66
2020/12/20 05:45:29;;;;;;;9.47;8.57;;;;;;;6.53;74.97;101073.78;5039521;28;20618;-65
2020/12/20 05:47:55;;;;;;;10.70;9.50;;;;;;;6.53;75.03;101074.63;5042574;28;20233;-66
2020/12/20 05:50:27;;;;;;;10.50;8.20;;;;;;;6.54;74.95;101073.72;5043446;28;20201;-66
2020/12/20 05:53:01;;;;;;;12.83;10.30;;;;;;;6.56;75.14;101084.25;5030549;28;20202;-66
2020/12/20 05:55:40;;;;;;;12.07;9.57;;;;;;;6.58;75.32;101077.13;5044610;28;20214;-65
2020/12/20 05:58:11;;;;;;;12.13;9.27;;;;;;;6.59;75.55;101078.84;5032879;28;20647;-64
2020/12/20 06:00:38;;;;;;;10.93;9.07;;;;;;;6.60;75.31;101081.44;5045838;28;20259;-66
2020/12/20 06:03:05;;;;;;;12.27;10.13;;;;;;;6.61;75.82;101077.84;5031097;28;20252;-66
2020/12/20 06:05:34;;;;;;;10.83;8.93;;;;;;;6.64;75.77;101079.50;5031125;28;20259;-68
2020/12/20 06:08:04;;;;;;;10.67;8.63;;;;;;;6.67;75.69;101076.72;5046275;28;20226;-65
2020/12/20 06:10:34;;;;;;;10.83;8.93;;;;;;;6.72;75.49;101087.13;5032406;28;20206;-66
2020/12/20 06:13:03;;;;;;;9.77;8.47;;;;;;;6.73;75.14;101092.38;5033089;28;20207;-66
2020/12/20 06:15:33;;;;;;;11.10;8.53;;;;;;;6.71;75.87;101088.91;5032914;28;20206;-66
2020/12/20 06:18:04;;;;;;;9.57;8.43;;;;;;;6.71;75.45;101093.34;5040442;28;20710;-66
2020/12/20 06:20:32;;;;;;;10.33;8.77;;;;;;;6.68;75.48;101089.03;5036653;28;20215;-66
2020/12/20 06:22:58;;;;;;;11.17;8.67;;;;;;;6.68;75.30;101088.19;5047231;28;20230;-66
2020/12/20 06:25:27;;;;;;;12.30;8.53;;;;;;;6.68;75.25;101089.03;5042829;28;20198;-66
2020/12/20 06:27:53;;;;;;;13.77;10.27;;;;;;;6.70;75.70;101089.84;5050308;28;20282;-66
2020/12/20 06:30:21;;;;;;;11.83;10.00;;;;;;;6.72;75.26;101081.84;5047724;28;20209;-66
2020/12/20 06:32:50;;;;;;;10.57;8.30;;;;;;;6.73;75.47;101073.84;5046587;28;20256;-66
2020/12/20 06:35:22;;;;;;;10.73;8.30;;;;;;;6.74;75.65;101067.63;5049518;28;20202;-67
2020/12/20 06:37:48;;;;;;;10.07;8.23;;;;;;;6.74;75.40;101061.47;5050193;28;20732;-66
2020/12/20 06:40:21;;;;;;;10.10;9.00;;;;;;;6.72;75.37;101053.59;5048971;28;20224;-66
2020/12/20 06:42:47;;;;;;;9.40;8.23;;;;;;;6.72;75.21;101064.19;5048985;28;20630;-66
2020/12/20 06:45:16;;;;;;;9.87;8.80;;;;;;;6.70;75.50;101067.81;5052363;28;20557;-66
2020/12/20 06:47:43;;;;;;;11.37;8.90;;;;;;;6.69;75.02;101074.03;5048920;28;20260;-67
2020/12/20 06:50:09;;;;;;;9.63;8.50;;;;;;;6.67;75.12;101082.03;5053285;28;20197;-66
2020/12/20 06:52:48;;;;;;;11.97;9.00;;;;;;;6.67;75.35;101071.44;5052853;28;20209;-66
2020/12/20 06:55:15;;;;;;;12.10;9.87;;;;;;;6.67;75.34;101074.06;5052543;28;20229;-66
2020/12/20 06:58:10;;;;;;;10.73;9.03;;;;;;;6.66;75.36;101080.28;5045420;28;20232;-66
2020/12/20 07:00:47;;;;;;;9.37;8.07;;;;;;;6.66;74.94;101079.44;5034345;28;20206;-66
2020/12/20 07:03:37;;;;;;;10.43;7.53;;;;;;;6.63;75.57;101088.34;5035116;28;20252;-66
2020/12/20 07:06:11;;;;;;;10.20;8.30;;;;;;;6.62;75.49;101081.38;5039864;28;20557;-66
2020/12/20 07:08:38;;;;;;;9.83;8.47;;;;;;;6.61;75.54;101072.56;5053409;28;20229;-66
2020/12/20 07:11:06;;;;;;;9.07;8.17;;;;;;;6.60;75.66;101062.91;5039829;28;20205;-66
2020/12/20 07:13:34;;;;;;;11.17;8.60;;;;;;;6.58;75.44;101066.53;5048237;28;20206;-66
2020/12/20 07:16:05;;;;;;;9.13;8.03;;;;;;;6.59;75.76;101062.97;5037330;28;20209;-66
2020/12/20 07:18:51;;;;;;;10.40;9.10;;;;;;;6.60;75.46;101069.97;5032073;28;20202;-66
2020/12/20 07:21:59;;;;;;;12.17;9.37;;;;;;;6.59;75.62;101074.41;5036492;28;20202;-66
2020/12/20 07:24:29;;;;;;;12.47;9.60;;;;;;;6.61;75.26;101079.63;4990962;28;20765;-66
2020/12/20 07:26:57;;;;;;;10.40;8.40;;;;;;;6.62;75.32;101086.66;5027866;28;20225;-65
2020/12/20 07:29:25;;;;;;;9.90;8.20;;;;;;;6.61;75.66;101077.84;5041375;28;20216;-66
2020/12/20 07:31:52;;;;;;;10.93;8.77;;;;;;;6.61;75.53;101069.91;5048169;28;20220;-65
2020/12/20 07:34:18;;;;;;;9.80;8.73;;;;;;;6.62;75.76;101073.44;5051249;28;20212;-66
2020/12/20 07:36:45;;;;;;;9.57;8.37;;;;;;;6.63;75.70;101079.59;5047987;28;20224;-66
2020/12/20 07:39:11;;;;;;;9.67;8.53;;;;;;;6.64;75.52;101066.25;5051134;28;20256;-66
2020/12/20 07:41:38;;;;;;;10.30;8.40;;;;;;;6.64;75.49;101079.50;5049312;28;20687;-66
2020/12/20 07:44:06;;;;;;;10.50;8.73;;;;;;;6.65;75.48;101075.91;5047441;28;20561;-65
2020/12/20 07:46:32;;;;;;;10.63;8.50;;;;;;;6.66;75.43;101082.06;5033247;28;20232;-66
2020/12/20 07:49:03;;;;;;;11.17;9.03;;;;;;;6.66;75.80;101085.59;5044324;28;20230;-66
2020/12/20 07:51:29;;;;;;;10.53;8.30;;;;;;;6.68;75.70;101090.81;5034432;28;20264;-65
2020/12/20 07:53:57;;;;;;;11.27;9.07;;;;;;;6.69;75.89;101089.91;5031827;28;20206;-65
2020/12/20 07:56:24;;;;;;;11.33;8.70;;;;;;;6.70;75.71;101091.63;5039079;28;20233;-65
2020/12/20 07:58:51;;;;;;;10.97;8.63;;;;;;;6.71;76.27;101090.69;5048034;28;20213;-66
2020/12/20 08:01:17;;;;;;;11.47;8.90;;;;;;;6.73;76.18;101099.44;5035959;28;20197;-65
2020/12/20 08:03:43;;;;;;;11.50;8.67;;;;;;;6.74;76.32;101086.16;5047661;28;20210;-65
2020/12/20 08:06:11;;;;;;;12.60;9.80;;;;;;;6.75;76.37;101077.28;5038187;28;20210;-66
2020/12/20 08:08:38;;;;;;;12.63;9.57;;;;;;;6.78;76.32;101076.31;5043049;28;20225;-66
2020/12/20 08:11:16;;;;;;;12.07;9.10;;;;;;;6.78;76.57;101082.47;5042395;28;20213;-66
2020/12/20 08:13:51;;;;;;;13.27;10.27;;;;;;;6.80;76.84;101074.47;5047372;28;20208;-65
2020/12/20 08:16:25;;;;;;;11.20;9.37;;;;;;;6.79;76.84;101068.31;5033930;28;20220;-65
2020/12/20 08:18:58;;;;;;;13.17;10.47;;;;;;;6.80;77.06;101093.84;5043648;28;20730;-65
2020/12/20 08:21:37;;;;;;;12.50;10.20;;;;;;;6.81;77.39;101106.13;5035155;28;20211;-66
2020/12/20 08:24:03;;;;;;;14.10;10.37;;;;;;;6.81;77.24;101108.78;5044610;28;20202;-66
2020/12/20 08:26:31;;;;;;;12.57;9.90;;;;;;;6.82;77.36;101105.22;5045682;28;20283;-66
2020/12/20 08:28:58;;;;;;;11.73;9.90;;;;;;;6.82;77.61;101114.94;5035759;28;20218;-65
2020/12/20 08:31:28;;;;;;;11.40;9.67;;;;;;;6.81;77.93;101114.09;5046396;28;20213;-66
2020/12/20 08:33:54;;;;;;;13.10;10.83;;;;;;;6.82;77.97;101118.47;5043097;28;20581;-65
2020/12/20 08:36:21;;;;;;;17.63;10.67;;;;;;;6.83;78.36;101119.31;5039062;28;20275;-66
2020/12/20 08:38:47;;;;;;;13.30;9.73;;;;;;;6.84;78.68;101116.63;5036119;28;20674;-66
2020/12/20 08:41:24;;;;;;;11.70;10.37;;;;;;;6.88;78.51;101128.81;5044596;28;20203;-66
2020/12/20 08:44:05;;;;;;;10.90;9.33;;;;;;;6.90;79.15;101132.25;5044629;28;20206;-65
2020/12/20 08:46:34;;;;;;;13.17;10.67;;;;;;;6.93;78.73;101120.69;5046227;28;20221;-66
2020/12/20 08:49:15;;;;;;;13.70;10.70;;;;;;;6.96;78.81;101128.50;5047753;28;20224;-66
2020/12/20 08:51:41;;;;;;;13.00;10.23;;;;;;;6.95;79.28;101117.06;5047214;28;20263;-66
2020/12/20 08:54:11;;;;;;;12.47;9.90;;;;;;;6.94;79.49;101117.97;5045829;28;21113;-65
2020/12/20 08:56:51;;;;;;;11.93;10.50;;;;;;;6.94;79.52;101120.63;5063168;22;20267;-69
2020/12/20 08:59:28;;;;;;;12.10;10.27;;;;;;;6.94;78.87;101130.34;5021537;28;20654;-69
2020/12/20 09:01:54;;;;;;;12.27;9.87;;;;;;;6.92;79.33;101134.84;5026276;28;20637;-69
2020/12/20 09:04:20;;;;;;;12.07;10.30;;;;;;;6.93;79.39;101125.97;5018510;28;20587;-69
2020/12/20 09:06:57;;;;;;;12.23;10.23;;;;;;;6.92;79.30;101135.72;5022988;28;20229;-69
2020/12/20 09:09:24;;;;;;;14.07;11.17;;;;;;;6.92;79.18;101129.56;5023603;28;20216;-66
2020/12/20 09:11:50;;;;;;;12.30;10.50;;;;;;;6.93;78.98;101140.09;5017698;28;20341;-67
2020/12/20 09:14:16;;;;;;;12.93;10.40;;;;;;;6.92;78.89;101130.41;5011452;28;20206;-66
2020/12/20 09:16:43;;;;;;;12.83;9.67;;;;;;;6.94;79.49;101117.97;5013161;28;20253;-66
2020/12/20 09:19:10;;;;;;;11.47;9.50;;;;;;;6.97;79.49;101114.34;5016722;28;20207;-66
2020/12/20 09:21:36;;;;;;;13.17;10.93;;;;;;;6.99;80.12;101120.41;5012426;28;20207;-66
2020/12/20 09:24:02;;;;;;;10.77;8.97;;;;;;;7.01;79.82;101107.97;5013683;28;20203;-66
2020/12/20 09:26:28;;;;;;;11.70;9.23;;;;;;;7.05;79.09;101119.31;5022558;28;20212;-67
2020/12/20 09:28:54;;;;;;;14.60;9.83;;;;;;;7.08;79.95;101119.19;5025233;28;20226;-66
2020/12/20 09:31:21;;;;;;;12.13;10.10;;;;;;;7.10;79.56;101126.16;5014626;28;20206;-66
2020/12/20 09:33:49;;;;;;;11.87;10.60;;;;;;;7.13;79.67;101127.81;5015902;28;20620;-66
2020/12/20 09:36:22;;;;;;;11.50;9.63;;;;;;;7.13;79.41;101136.63;5016667;28;20206;-66
2020/12/20 09:38:50;;;;;;;13.53;10.60;;;;;;;7.14;79.42;101150.72;5018271;28;20198;-66
2020/12/20 09:41:18;;;;;;;12.57;10.03;;;;;;;7.15;78.90;101152.47;5019144;28;20203;-66
2020/12/20 09:43:45;;;;;;;13.57;9.20;;;;;;;7.14;79.12;101143.66;5012580;28;20207;-65
2020/12/20 09:46:21;;;;;;;13.30;10.03;;;;;;;7.15;79.95;101147.16;5015015;28;20198;-66
2020/12/20 09:48:49;;;;;;;11.03;9.70;;;;;;;7.16;79.29;101140.94;5009812;28;20708;-66
2020/12/20 09:51:15;;;;;;;12.43;10.13;;;;;;;7.15;79.73;101136.56;5013133;28;20307;-66
2020/12/20 09:53:41;;;;;;;10.90;9.17;;;;;;;7.18;79.66;101131.97;5012676;28;20219;-66
2020/12/20 09:56:07;;;;;;;10.60;9.40;;;;;;;7.19;79.76;101133.69;5010233;28;20199;-66
2020/12/20 09:58:34;;;;;;;10.83;9.37;;;;;;;7.21;79.48;101123.91;5009758;28;20238;-67
2020/12/20 10:01:01;;;;;;;11.77;9.10;;;;;;;7.25;78.65;101130.81;5010512;28;20206;-66
2020/12/20 10:03:28;;;;;;;10.53;8.67;;;;;;;7.26;78.75;101123.72;5015394;28;20667;-66
2020/12/20 10:05:57;;;;;;;9.70;8.27;;;;;;;7.27;78.77;101121.00;5018216;28;20253;-67
2020/12/20 10:08:24;;;;;;;11.33;9.17;;;;;;;7.30;79.21;101127.97;5017171;28;20690;-67
2020/12/20 10:10:51;;;;;;;12.10;9.40;;;;;;;7.31;78.45;101121.75;5018699;28;20260;-68
2020/12/20 10:13:17;;;;;;;11.17;8.77;;;;;;;7.33;78.90;101114.59;5012345;28;20206;-67
2020/12/20 10:15:43;;;;;;;10.13;9.03;;;;;;;7.34;78.60;101104.88;5019794;28;20260;-67
2020/12/20 10:18:09;;;;;;;10.10;8.73;;;;;;;7.35;78.35;101096.81;5014937;28;20222;-67
2020/12/20 10:20:35;;;;;;;9.63;8.20;;;;;;;7.36;78.83;101098.53;5023254;28;20206;-67
2020/12/20 10:23:02;;;;;;;10.17;9.07;;;;;;;7.39;78.28;101105.50;5021809;28;20224;-67
2020/12/20 10:25:29;;;;;;;11.43;8.80;;;;;;;7.41;78.38;101093.06;5013661;28;20202;-67
2020/12/20 10:27:55;;;;;;;9.97;8.73;;;;;;;7.43;78.68;101096.50;5013027;28;20235;-67
2020/12/20 10:30:22;;;;;;;10.47;9.20;;;;;;;7.44;78.47;101101.75;5016333;28;20206;-67
2020/12/20 10:32:48;;;;;;;9.90;8.60;;;;;;;7.47;78.36;101098.09;5018329;28;20261;-67
2020/12/20 10:35:14;;;;;;;10.97;9.67;;;;;;;7.48;78.11;101108.63;5020408;28;20204;-67
2020/12/20 10:37:40;;;;;;;12.80;9.27;;;;;;;7.50;77.99;101111.22;5020910;28;20699;-66
2020/12/20 10:40:07;;;;;;;9.53;8.53;;;;;;;7.54;77.71;101107.50;5030005;28;20202;-67
2020/12/20 10:42:33;;;;;;;10.67;8.87;;;;;;;7.56;78.26;101114.44;5019355;28;20210;-66
2020/12/20 10:45:00;;;;;;;11.20;9.23;;;;;;;7.56;78.57;101103.00;5017230;28;20233;-66
2020/12/20 10:47:26;;;;;;;11.47;8.80;;;;;;;7.60;77.46;101105.44;5023761;28;20230;-66
2020/12/20 10:49:52;;;;;;;12.43;9.67;;;;;;;7.60;77.93;101100.13;5013456;28;20289;-66
2020/12/20 10:52:18;;;;;;;10.53;8.83;;;;;;;7.62;77.49;101111.53;5017854;28;20265;-66
2020/12/20 10:54:44;;;;;;;11.40;8.60;;;;;;;7.63;77.98;101109.75;5017895;28;20233;-66
2020/12/20 10:57:11;;;;;;;12.63;10.00;;;;;;;7.64;77.66;101107.03;5016095;28;20238;-67
2020/12/20 10:59:37;;;;;;;10.00;7.83;;;;;;;7.68;78.01;101117.50;5016858;28;20202;-66
2020/12/20 11:02:05;;;;;;;10.00;7.87;;;;;;;7.71;78.00;101122.66;5020656;28;20203;-67
2020/12/20 11:04:31;;;;;;;10.63;8.53;;;;;;;7.74;77.28;101114.56;5017392;28;20297;-66
2020/12/20 11:06:57;;;;;;;10.10;8.73;;;;;;;7.77;77.52;101115.31;5022115;28;20223;-69
2020/12/20 11:09:23;;;;;;;11.83;8.93;;;;;;;7.79;77.81;101115.25;5019822;28;20227;-66
2020/12/20 11:11:50;;;;;;;9.67;7.73;;;;;;;7.82;77.78;101104.50;5024228;28;20592;-66
2020/12/20 11:14:16;;;;;;;10.60;8.93;;;;;;;7.85;77.74;101101.72;5013475;28;20214;-66
2020/12/20 11:16:42;;;;;;;11.17;8.47;;;;;;;7.87;77.68;101091.91;5013817;28;20256;-66
2020/12/20 11:19:09;;;;;;;10.47;8.80;;;;;;;7.88;77.26;101085.69;5028303;28;20205;-66
2020/12/20 11:21:36;;;;;;;10.90;8.63;;;;;;;7.91;77.19;101086.38;5031511;28;20207;-67
2020/12/20 11:24:02;;;;;;;9.53;8.20;;;;;;;7.93;77.13;101091.59;5013661;28;20210;-67
2020/12/20 11:26:28;;;;;;;11.07;9.10;;;;;;;7.94;77.29;101085.38;5013388;28;20213;-70
2020/12/20 11:28:54;;;;;;;9.37;8.17;;;;;;;7.96;77.14;101080.88;5019252;28;20222;-66
2020/12/20 11:31:23;;;;;;;9.20;8.20;;;;;;;7.97;77.01;101082.59;5031852;28;20267;-68